(°C)
10°
11°
12°
13°
13°
14°
(°C)
WNW
NW
WNW
WNW
WNW
WNW
WNW
(كم/سا)
11-21
16-23
17-25
17-25
16-29
16-29
16-31
(مم)
0
0
0
0
0
0
0
(%)
0
0
0
0
0
0
0

مستوى ارتفاع الشمس

/ 24.6°
sun-icon
UV 2
07:09
19:47
قمر الصباح (137°)
18:52
02:03

متر ل51.15°شمال 51.54°شرق (UARR)

الوقت الشروط درجة الحرارة/
نقطة الندى
رياح مجال رؤية حالة الطقس غيوم الضغط تغيير خام
VFR 8°C / 5°C 310º 8kt >10km - Clouds and Visibility OK 1015 No Significant change UARR 170430Z 31004MPS CAVOK 08/05 Q1015 R22/CLRD70 NOSIG RMK QFE758/1011
VFR 7°C / 5°C 300º 8kt >10km - Clouds and Visibility OK 1015 No Significant change UARR 170400Z 30004MPS CAVOK 07/05 Q1015 R22/CLRD70 NOSIG RMK QFE758/1011
VFR 5°C / 4°C 290º 6kt >10km - Clouds and Visibility OK 1015 No Significant change UARR 170330Z 29003MPS CAVOK 05/04 Q1015 R22/CLRD70 NOSIG RMK QFE758/1010
VFR 3°C / 3°C 290º 8kt >10km - Clouds and Visibility OK 1015 No Significant change UARR 170300Z 29004MPS CAVOK 03/03 Q1015 R22/CLRD70 NOSIG RMK QFE757/1010
VFR 2°C / 1°C 290º 6kt >10km - Clouds and Visibility OK 1015 No Significant change UARR 170230Z 29003MPS CAVOK 02/01 Q1015 R04/CLRD70 NOSIG RMK QFE757/1010
VFR 2°C / 1°C 290º 8kt >10km - Clouds and Visibility OK 1014 No Significant change UARR 170200Z 29004MPS CAVOK 02/01 Q1014 R04/CLRD70 NOSIG RMK QFE757/1010
VFR 2°C / 2°C 290º 6kt >10km - Clouds and Visibility OK 1014 No Significant change UARR 170130Z 29003MPS CAVOK 02/02 Q1014 R04/CLRD70 NOSIG RMK QFE757/1010
VFR 2°C / 2°C 280º 8kt >10km - Clouds and Visibility OK 1014 No Significant change UARR 170100Z 28004MPS CAVOK 02/02 Q1014 R04/CLRD70 NOSIG RMK QFE757/1010
VFR 3°C / 2°C 290º 8kt >10km - Clouds and Visibility OK 1014 No Significant change UARR 170030Z 29004MPS CAVOK 03/02 Q1014 R04/CLRD70 NOSIG RMK QFE757/1010
VFR 4°C / 2°C 300º 8kt >10km - Clouds and Visibility OK 1014 No Significant change UARR 170000Z 30004MPS CAVOK 04/02 Q1014 R04/CLRD70 NOSIG RMK QFE757/1009
VFR 4°C / 3°C 300º 6kt >10km - Clouds and Visibility OK 1014 No Significant change UARR 162330Z 30003MPS CAVOK 04/03 Q1014 R04/CLRD70 NOSIG RMK QFE757/1009
VFR 4°C / 3°C 310º 6kt >10km - Clouds and Visibility OK 1013 No Significant change UARR 162300Z 31003MPS CAVOK 04/03 Q1013 R04/CLRD70 NOSIG RMK QFE757/1009
VFR 6°C / 4°C 330º 8kt >10km - Clouds and Visibility OK 1013 Temporary: Visibility 2000. Showers Rain . Mist . Broken Clouds 500ft. Broken Clouds 2000ft. Cumulonimbus RMK QFE756/1008 . Runway 04: Wet or puddles, 51-100% contamination with 1mm, friction coefficient 0.60. UARR 162230Z 33004MPS CAVOK 06/04 Q1013 R04/290160 TEMPO 2000 SHRA BR BKN005 BKN020CB RMK QFE756/1008
VFR 7°C / 4°C 330º 10kt >10km - Clouds and Visibility OK 1013 Temporary: Visibility 2000. Showers Rain . Mist . Broken Clouds 500ft. Broken Clouds 2000ft. Cumulonimbus RMK QFE756/1008 . Runway 04: Wet or puddles, 51-100% contamination with 1mm, friction coefficient 0.60. UARR 162200Z 33005MPS CAVOK 07/04 Q1013 R04/290160 TEMPO 2000 SHRA BR BKN005 BKN020CB RMK QFE756/1008
VFR 7°C / 5°C 340º 10kt >10km - Clouds and Visibility OK 1012 Temporary: Visibility 2000. Showers Rain . Mist . Broken Clouds 500ft. Broken Clouds 2000ft. Cumulonimbus RMK QFE756/1008 . Runway 04: Wet or puddles, 51-100% contamination with 1mm, friction coefficient 0.60. UARR 162130Z 34005MPS CAVOK 07/05 Q1012 R04/290160 TEMPO 2000 SHRA BR BKN005 BKN020CB RMK QFE756/1008
VFR 8°C / 5°C 350º 12kt >10km - Clouds and Visibility OK 1012 Temporary: Visibility 2000. Showers Rain . Mist . Broken Clouds 500ft. Broken Clouds 2000ft. Cumulonimbus RMK QFE755/1007 . Runway 22: Wet or puddles, 51-100% contamination with 1mm, friction coefficient 0.60. UARR 162100Z 35006MPS CAVOK 08/05 Q1012 R22/290160 TEMPO 2000 SHRA BR BKN005 BKN020CB RMK QFE755/1007
VFR 9°C / 7°C 330º variable 300º to 360º 10kt >10km - Broken Clouds 5000ft 1012 Temporary: Visibility 2000. Showers Rain . Mist . Broken Clouds 500ft. Broken Clouds 2000ft. Cumulonimbus RMK QFE755/1007 . Runway 22: Wet or puddles, 51-100% contamination with 1mm, friction coefficient 0.60. UARR 162030Z 33005MPS 300V360 9999 BKN050CB 09/07 Q1012 R22/290160 TEMPO 2000 SHRA BR BKN005 BKN020CB RMK QFE755/1007
VFR 9°C / 8°C 300º 10kt >10km - Broken Clouds 5000ft 1011 Temporary: Visibility 2000. Showers Rain . Mist . Broken Clouds 500ft. Broken Clouds 2000ft. Cumulonimbus RMK QFE755/1007 . Runway 22: Wet or puddles, 51-100% contamination with 1mm, friction coefficient 0.60. UARR 162000Z 30005MPS 9999 BKN050CB 09/08 Q1011 R22/290160 TEMPO 2000 SHRA BR BKN005 BKN020CB RMK QFE755/1007
VFR 9°C / 9°C 300º 10kt >10km Light Showers Rain 3.00mm precipitation Vertical Visibility of 0ft. 1012 Temporary: Visibility 2000. Showers Rain . Mist . Broken Clouds 500ft. Broken Clouds 2000ft. Cumulonimbus RMK QFE755/1007 . Runway 22: Wet or puddles, 51-100% contamination with 1mm, friction coefficient 0.60. UARR 161930Z 30005MPS 9999 -SHRA BKN041CB 09/09 Q1012 R22/290160 TEMPO 2000 SHRA BR BKN005 BKN020CB RMK QFE755/1007
VFR 10°C / 9°C 310º 12kt >10km Light Showers Rain 3.00mm precipitation Vertical Visibility of 0ft. 1011 Temporary: Visibility 2000. Showers Rain . Mist . Broken Clouds 500ft. Broken Clouds 2000ft. Cumulonimbus RMK QFE755/1007 . Runway 22: Wet or puddles, 51-100% contamination with 1mm, friction coefficient 0.60. UARR 161900Z 31006MPS 9999 -SHRA BKN042CB 10/09 Q1011 R22/290160 TEMPO 2000 SHRA BR BKN005 BKN020CB RMK QFE755/1007
MVFR 10°C / 8°C 320º 10kt 7000m Light Showers Rain 3.00mm precipitation Vertical Visibility of 0ft. 1011 Temporary: Visibility 2000. Showers Rain . Mist . Broken Clouds 500ft. Broken Clouds 2000ft. Cumulonimbus RMK QFE755/1006 UARR 161830Z 32005MPS 7000 -SHRA BKN043CB 10/08 Q1011 R22/CLRD70 TEMPO 2000 SHRA BR BKN005 BKN020CB RMK QFE755/1006
VFR 11°C / 7°C 300º variable 270º to 340º 8kt >10km Light Showers Rain 3.00mm precipitation Vertical Visibility of 0ft. 1011 No Significant change UARR 161800Z 30004MPS 270V340 9999 -SHRA BKN043CB 11/07 Q1011 R22/CLRD70 NOSIG RMK QFE754/1006
VFR 11°C / 7°C 360º 8kt >10km - Broken Clouds 5000ft 1010 No Significant change UARR 161730Z 36004MPS 9999 BKN050CB 11/07 Q1010 R04/CLRD70 NOSIG RMK QFE754/1005
VFR 12°C / 6°C 360º 16kt >10km - Broken Clouds 5000ft 1009 No Significant change UARR 161700Z 36008MPS 9999 BKN050CB 12/06 Q1009 R22/CLRD70 NOSIG RMK QFE753/1004

VFR

8°C / 5°C

[أكثر]
رياح 310º 8kt
مجال رؤية >10km
حالة الطقس -
غيوم Clouds and Visibility OK
الضغط 1015
تغيير No Significant change
خام UARR 170430Z 31004MPS CAVOK 08/05 Q1015 R22/CLRD70 NOSIG RMK QFE758/1011

VFR

7°C / 5°C

[أكثر]
رياح 300º 8kt
مجال رؤية >10km
حالة الطقس -
غيوم Clouds and Visibility OK
الضغط 1015
تغيير No Significant change
خام UARR 170400Z 30004MPS CAVOK 07/05 Q1015 R22/CLRD70 NOSIG RMK QFE758/1011

VFR

5°C / 4°C

[أكثر]
رياح 290º 6kt
مجال رؤية >10km
حالة الطقس -
غيوم Clouds and Visibility OK
الضغط 1015
تغيير No Significant change
خام UARR 170330Z 29003MPS CAVOK 05/04 Q1015 R22/CLRD70 NOSIG RMK QFE758/1010

VFR

3°C / 3°C

[أكثر]
رياح 290º 8kt
مجال رؤية >10km
حالة الطقس -
غيوم Clouds and Visibility OK
الضغط 1015
تغيير No Significant change
خام UARR 170300Z 29004MPS CAVOK 03/03 Q1015 R22/CLRD70 NOSIG RMK QFE757/1010

VFR

2°C / 1°C

[أكثر]
رياح 290º 6kt
مجال رؤية >10km
حالة الطقس -
غيوم Clouds and Visibility OK
الضغط 1015
تغيير No Significant change
خام UARR 170230Z 29003MPS CAVOK 02/01 Q1015 R04/CLRD70 NOSIG RMK QFE757/1010

VFR

2°C / 1°C

[أكثر]
رياح 290º 8kt
مجال رؤية >10km
حالة الطقس -
غيوم Clouds and Visibility OK
الضغط 1014
تغيير No Significant change
خام UARR 170200Z 29004MPS CAVOK 02/01 Q1014 R04/CLRD70 NOSIG RMK QFE757/1010

VFR

2°C / 2°C

[أكثر]
رياح 290º 6kt
مجال رؤية >10km
حالة الطقس -
غيوم Clouds and Visibility OK
الضغط 1014
تغيير No Significant change
خام UARR 170130Z 29003MPS CAVOK 02/02 Q1014 R04/CLRD70 NOSIG RMK QFE757/1010

VFR

2°C / 2°C

[أكثر]
رياح 280º 8kt
مجال رؤية >10km
حالة الطقس -
غيوم Clouds and Visibility OK
الضغط 1014
تغيير No Significant change
خام UARR 170100Z 28004MPS CAVOK 02/02 Q1014 R04/CLRD70 NOSIG RMK QFE757/1010

VFR

3°C / 2°C

[أكثر]
رياح 290º 8kt
مجال رؤية >10km
حالة الطقس -
غيوم Clouds and Visibility OK
الضغط 1014
تغيير No Significant change
خام UARR 170030Z 29004MPS CAVOK 03/02 Q1014 R04/CLRD70 NOSIG RMK QFE757/1010

VFR

4°C / 2°C

[أكثر]
رياح 300º 8kt
مجال رؤية >10km
حالة الطقس -
غيوم Clouds and Visibility OK
الضغط 1014
تغيير No Significant change
خام UARR 170000Z 30004MPS CAVOK 04/02 Q1014 R04/CLRD70 NOSIG RMK QFE757/1009

VFR

4°C / 3°C

[أكثر]
رياح 300º 6kt
مجال رؤية >10km
حالة الطقس -
غيوم Clouds and Visibility OK
الضغط 1014
تغيير No Significant change
خام UARR 162330Z 30003MPS CAVOK 04/03 Q1014 R04/CLRD70 NOSIG RMK QFE757/1009

VFR

4°C / 3°C

[أكثر]
رياح 310º 6kt
مجال رؤية >10km
حالة الطقس -
غيوم Clouds and Visibility OK
الضغط 1013
تغيير No Significant change
خام UARR 162300Z 31003MPS CAVOK 04/03 Q1013 R04/CLRD70 NOSIG RMK QFE757/1009

VFR

6°C / 4°C

[أكثر]
رياح 330º 8kt
مجال رؤية >10km
حالة الطقس -
غيوم Clouds and Visibility OK
الضغط 1013
تغيير Temporary: Visibility 2000. Showers Rain . Mist . Broken Clouds 500ft. Broken Clouds 2000ft. Cumulonimbus RMK QFE756/1008 . Runway 04: Wet or puddles, 51-100% contamination with 1mm, friction coefficient 0.60.
خام UARR 162230Z 33004MPS CAVOK 06/04 Q1013 R04/290160 TEMPO 2000 SHRA BR BKN005 BKN020CB RMK QFE756/1008

VFR

7°C / 4°C

[أكثر]
رياح 330º 10kt
مجال رؤية >10km
حالة الطقس -
غيوم Clouds and Visibility OK
الضغط 1013
تغيير Temporary: Visibility 2000. Showers Rain . Mist . Broken Clouds 500ft. Broken Clouds 2000ft. Cumulonimbus RMK QFE756/1008 . Runway 04: Wet or puddles, 51-100% contamination with 1mm, friction coefficient 0.60.
خام UARR 162200Z 33005MPS CAVOK 07/04 Q1013 R04/290160 TEMPO 2000 SHRA BR BKN005 BKN020CB RMK QFE756/1008

VFR

7°C / 5°C

[أكثر]
رياح 340º 10kt
مجال رؤية >10km
حالة الطقس -
غيوم Clouds and Visibility OK
الضغط 1012
تغيير Temporary: Visibility 2000. Showers Rain . Mist . Broken Clouds 500ft. Broken Clouds 2000ft. Cumulonimbus RMK QFE756/1008 . Runway 04: Wet or puddles, 51-100% contamination with 1mm, friction coefficient 0.60.
خام UARR 162130Z 34005MPS CAVOK 07/05 Q1012 R04/290160 TEMPO 2000 SHRA BR BKN005 BKN020CB RMK QFE756/1008

VFR

8°C / 5°C

[أكثر]
رياح 350º 12kt
مجال رؤية >10km
حالة الطقس -
غيوم Clouds and Visibility OK
الضغط 1012
تغيير Temporary: Visibility 2000. Showers Rain . Mist . Broken Clouds 500ft. Broken Clouds 2000ft. Cumulonimbus RMK QFE755/1007 . Runway 22: Wet or puddles, 51-100% contamination with 1mm, friction coefficient 0.60.
خام UARR 162100Z 35006MPS CAVOK 08/05 Q1012 R22/290160 TEMPO 2000 SHRA BR BKN005 BKN020CB RMK QFE755/1007

VFR

9°C / 7°C

[أكثر]
رياح 330º variable 300º to 360º 10kt
مجال رؤية >10km
حالة الطقس -
غيوم Broken Clouds 5000ft
الضغط 1012
تغيير Temporary: Visibility 2000. Showers Rain . Mist . Broken Clouds 500ft. Broken Clouds 2000ft. Cumulonimbus RMK QFE755/1007 . Runway 22: Wet or puddles, 51-100% contamination with 1mm, friction coefficient 0.60.
خام UARR 162030Z 33005MPS 300V360 9999 BKN050CB 09/07 Q1012 R22/290160 TEMPO 2000 SHRA BR BKN005 BKN020CB RMK QFE755/1007

VFR

9°C / 8°C

[أكثر]
رياح 300º 10kt
مجال رؤية >10km
حالة الطقس -
غيوم Broken Clouds 5000ft
الضغط 1011
تغيير Temporary: Visibility 2000. Showers Rain . Mist . Broken Clouds 500ft. Broken Clouds 2000ft. Cumulonimbus RMK QFE755/1007 . Runway 22: Wet or puddles, 51-100% contamination with 1mm, friction coefficient 0.60.
خام UARR 162000Z 30005MPS 9999 BKN050CB 09/08 Q1011 R22/290160 TEMPO 2000 SHRA BR BKN005 BKN020CB RMK QFE755/1007

VFR

9°C / 9°C

[أكثر]
رياح 300º 10kt
مجال رؤية >10km
حالة الطقس Light Showers Rain 3.00mm precipitation
غيوم Vertical Visibility of 0ft.
الضغط 1012
تغيير Temporary: Visibility 2000. Showers Rain . Mist . Broken Clouds 500ft. Broken Clouds 2000ft. Cumulonimbus RMK QFE755/1007 . Runway 22: Wet or puddles, 51-100% contamination with 1mm, friction coefficient 0.60.
خام UARR 161930Z 30005MPS 9999 -SHRA BKN041CB 09/09 Q1012 R22/290160 TEMPO 2000 SHRA BR BKN005 BKN020CB RMK QFE755/1007

VFR

10°C / 9°C

[أكثر]
رياح 310º 12kt
مجال رؤية >10km
حالة الطقس Light Showers Rain 3.00mm precipitation
غيوم Vertical Visibility of 0ft.
الضغط 1011
تغيير Temporary: Visibility 2000. Showers Rain . Mist . Broken Clouds 500ft. Broken Clouds 2000ft. Cumulonimbus RMK QFE755/1007 . Runway 22: Wet or puddles, 51-100% contamination with 1mm, friction coefficient 0.60.
خام UARR 161900Z 31006MPS 9999 -SHRA BKN042CB 10/09 Q1011 R22/290160 TEMPO 2000 SHRA BR BKN005 BKN020CB RMK QFE755/1007

MVFR

10°C / 8°C

[أكثر]
رياح 320º 10kt
مجال رؤية 7000m
حالة الطقس Light Showers Rain 3.00mm precipitation
غيوم Vertical Visibility of 0ft.
الضغط 1011
تغيير Temporary: Visibility 2000. Showers Rain . Mist . Broken Clouds 500ft. Broken Clouds 2000ft. Cumulonimbus RMK QFE755/1006
خام UARR 161830Z 32005MPS 7000 -SHRA BKN043CB 10/08 Q1011 R22/CLRD70 TEMPO 2000 SHRA BR BKN005 BKN020CB RMK QFE755/1006

VFR

11°C / 7°C

[أكثر]
رياح 300º variable 270º to 340º 8kt
مجال رؤية >10km
حالة الطقس Light Showers Rain 3.00mm precipitation
غيوم Vertical Visibility of 0ft.
الضغط 1011
تغيير No Significant change
خام UARR 161800Z 30004MPS 270V340 9999 -SHRA BKN043CB 11/07 Q1011 R22/CLRD70 NOSIG RMK QFE754/1006

VFR

11°C / 7°C

[أكثر]
رياح 360º 8kt
مجال رؤية >10km
حالة الطقس -
غيوم Broken Clouds 5000ft
الضغط 1010
تغيير No Significant change
خام UARR 161730Z 36004MPS 9999 BKN050CB 11/07 Q1010 R04/CLRD70 NOSIG RMK QFE754/1005

VFR

12°C / 6°C

[أكثر]
رياح 360º 16kt
مجال رؤية >10km
حالة الطقس -
غيوم Broken Clouds 5000ft
الضغط 1009
تغيير No Significant change
خام UARR 161700Z 36008MPS 9999 BKN050CB 12/06 Q1009 R22/CLRD70 NOSIG RMK QFE753/1004

انقر ل51.15°شمال 51.54°شرق (UARR)

From till


From till Wind 310º 14kt. Visibility 10km or more. Nil Significant Cloud.
Temporarly from till Wind 300º 8kt.

خام: TAF UARR 170201Z 1703/1712 31007MPS CAVOK TEMPO 1703/1706 30004MPS

صور الأقمار الصناعية الملتقطة و الأمطار حالياً ل51.15°شمال 51.54°شرق

المؤشر يدل على موقع 51.15°شمال 51.54°شرق. [أكثر]

تجمع صورة الأقمار الصناعية في الوقت الفعلي بين الضوء المرئي أثناء النهار والأشعة تحت الحمراء أثناء الليل. لا تبدو الصورة مظلمة ليلاً، لأن الأشعة تحت الحمراء يمكنها الكشف عن الاختلافات في درجة الحرارة. لسوء الحظ ، يصعب التمييز بين السحب المنخفضة والضباب ودرجات حرارة الأرض ، وبالتالي يمكن أن تكون الصور غير مرئية تقريبًا أثناء الليل. يتم تحديث صور الأقمار الصناعية Meteosat الخاصة بأوروبا في الوقت الفعلي كل 5 دقائق، بينما يتم تحديث صور GOES-16 / GOES-17 (أمريكا الشمالية والجنوبية) و Himawari (آسيا) كل 10 دقائق.

حقوق النسخ 2021 EUMETSAT / meteoblue. / حقوق النسخ 2021 meteoblue

رادار وهطول الأمطار التنبؤ الآني ل51.15°شمال 51.54°شرق

رذاذ
ضوء
معتدل
ثقيل
ثقيل جدا
وابل

مؤشر المكان يشير الى 51.15°شمال 51.54°شرق. تظهر في هذه الرسوم المتحركة هطول الامطار بالرادار للساعة الماضية, و توقعات 1h. رذاذ أو تساقط ثلوج خفيف قد يكون غير مرئي للرادار. كثافة هطول الأمطار مرمزة بالألوان وتتراوح من الأزرق الفاتح إلى البرتقالي.